Time;durP1;ratioP1;P1;durP2;ratioP2;P2;SDS_P1;SDS_P2;PMS_P1;PMS_P2;Temp;Humidity;BMP_temperature;BMP_pressure;BME280_temperature;BME280_humidity;BME280_pressure;Samples;Min_cycle;Max_cycle;Signal;HPM_P1;HPM_P2
2021/06/28 00:00:25;;;;;;;9.88;8.88;;;18.80;90.30;;;;;;2096323;28;20071;-72
2021/06/28 00:01:26;;;;;;;10.70;8.95;;;18.80;90.30;;;;;;2096726;28;20037;-72
2021/06/28 00:02:29;;;;;;;10.38;9.32;;;18.80;90.30;;;;;;2105177;28;20036;-72
2021/06/28 00:03:31;;;;;;;9.98;8.98;;;18.80;90.20;;;;;;2105260;28;20024;-72
2021/06/28 00:04:32;;;;;;;9.90;8.90;;;18.80;90.00;;;;;;2096395;28;20096;-72
2021/06/28 00:05:32;;;;;;;10.93;9.45;;;18.80;90.00;;;;;;2088002;28;20464;-73
2021/06/28 00:06:33;;;;;;;10.00;9.00;;;18.80;90.00;;;;;;2096394;28;20073;-72
2021/06/28 00:07:34;;;;;;;9.93;9.02;;;18.80;89.80;;;;;;2105227;28;20364;-74
2021/06/28 00:08:37;;;;;;;10.20;9.30;;;18.80;89.80;;;;;;2095261;28;20491;-72
2021/06/28 00:09:38;;;;;;;9.95;9.05;;;18.70;89.40;;;;;;2096520;28;20029;-73
2021/06/28 00:10:38;;;;;;;9.82;8.93;;;18.70;89.60;;;;;;2105105;28;20020;-72
2021/06/28 00:11:39;;;;;;;10.45;9.45;;;18.70;89.60;;;;;;2105256;28;20047;-72
2021/06/28 00:12:40;;;;;;;10.32;9.32;;;18.70;89.90;;;;;;2105266;28;20095;-73
2021/06/28 00:13:42;;;;;;;10.43;9.43;;;18.70;89.90;;;;;;2096103;28;20032;-71
2021/06/28 00:14:43;;;;;;;9.90;8.90;;;18.70;90.00;;;;;;2096473;28;20443;-73
2021/06/28 00:15:50;;;;;;;9.68;8.77;;;18.70;90.00;;;;;;2105205;28;20028;-75
2021/06/28 00:16:54;;;;;;;9.98;8.90;;;18.70;90.00;;;;;;2105174;28;20064;-72
2021/06/28 00:17:55;;;;;;;10.32;9.25;;;18.60;89.70;;;;;;2105283;28;20039;-73
2021/06/28 00:18:57;;;;;;;10.20;9.10;;;18.60;90.30;;;;;;2104997;28;20024;-73
2021/06/28 00:19:58;;;;;;;9.40;8.57;;;18.60;89.60;;;;;;2098427;28;20040;-72
2021/06/28 00:20:59;;;;;;;9.93;8.98;;;18.60;89.70;;;;;;2107139;28;20035;-72
2021/06/28 00:21:59;;;;;;;10.13;8.93;;;18.60;89.60;;;;;;2108657;28;20089;-73
2021/06/28 00:23:01;;;;;;;11.68;9.48;;;18.60;89.80;;;;;;2109456;28;20157;-72
2021/06/28 00:24:02;;;;;;;10.80;9.73;;;18.60;89.90;;;;;;2110240;28;20077;-71
2021/06/28 00:25:09;;;;;;;10.23;9.23;;;18.60;90.10;;;;;;2109017;28;20028;-73
2021/06/28 00:26:10;;;;;;;10.05;9.05;;;18.60;90.00;;;;;;2097681;28;20059;-73
2021/06/28 00:27:10;;;;;;;10.93;9.82;;;18.50;90.00;;;;;;2097737;28;20047;-73
2021/06/28 00:44:42;;;;;;;10.68;9.68;;;18.30;90.60;;;;;;2106750;28;20028;-71
2021/06/28 00:45:44;;;;;;;10.73;9.70;;;18.30;90.60;;;;;;2106432;28;20012;-71
2021/06/28 00:46:44;;;;;;;11.27;10.18;;;18.20;90.70;;;;;;2106434;28;20055;-72
2021/06/28 00:47:46;;;;;;;10.40;9.40;;;18.30;90.80;;;;;;2106385;28;20474;-72
2021/06/28 00:48:46;;;;;;;10.00;9.00;;;18.30;90.80;;;;;;2105600;28;20117;-71
2021/06/28 00:49:47;;;;;;;10.63;9.55;;;18.30;90.80;;;;;;2106330;28;20061;-73
2021/06/28 00:50:52;;;;;;;10.20;9.30;;;18.30;90.80;;;;;;2106170;28;20031;-73
2021/06/28 00:51:56;;;;;;;10.75;9.75;;;18.30;90.60;;;;;;2097190;28;20082;-71
2021/06/28 00:52:58;;;;;;;10.73;9.45;;;18.20;90.50;;;;;;2097956;28;20021;-71
2021/06/28 00:53:59;;;;;;;10.10;9.20;;;18.20;90.40;;;;;;2106278;28;20028;-70
2021/06/28 00:55:00;;;;;;;10.27;9.27;;;18.20;90.50;;;;;;2106389;28;20085;-72
2021/06/28 00:56:10;;;;;;;10.15;9.25;;;18.20;90.50;;;;;;2106539;28;20031;-72
2021/06/28 00:57:10;;;;;;;10.43;9.33;;;18.20;90.60;;;;;;2106359;28;20120;-74
2021/06/28 00:58:11;;;;;;;10.60;9.60;;;18.20;90.50;;;;;;2106346;28;20273;-72
2021/06/28 00:59:15;;;;;;;10.05;9.10;;;18.20;90.40;;;;;;2105650;28;20120;-72
2021/06/28 01:00:17;;;;;;;10.15;9.25;;;18.20;90.40;;;;;;2106408;28;20016;-72
2021/06/28 01:01:18;;;;;;;10.23;9.23;;;18.20;90.40;;;;;;2106421;28;20028;-71
2021/06/28 01:02:18;;;;;;;9.63;8.63;;;18.20;90.30;;;;;;2106401;28;20024;-71
2021/06/28 01:03:19;;;;;;;10.40;9.40;;;18.20;90.20;;;;;;2106439;28;20495;-71
2021/06/28 01:04:20;;;;;;;10.20;9.27;;;18.30;90.30;;;;;;2106484;28;20181;-72
2021/06/28 01:05:23;;;;;;;10.60;9.52;;;18.30;90.20;;;;;;2106449;28;20032;-72
2021/06/28 01:06:24;;;;;;;10.43;9.43;;;18.30;90.20;;;;;;2106478;28;20036;-73
2021/06/28 01:07:24;;;;;;;10.75;9.65;;;18.30;90.10;;;;;;2106488;28;20032;-73
2021/06/28 01:08:25;;;;;;;11.38;9.40;;;18.30;90.00;;;;;;2106216;28;20733;-73
2021/06/28 01:09:25;;;;;;;10.63;9.70;;;18.30;89.80;;;;;;2105828;28;20039;-73
2021/06/28 01:10:27;;;;;;;12.65;10.02;;;18.30;89.80;;;;;;2106581;28;20031;-71
2021/06/28 01:11:27;;;;;;;10.82;9.77;;;18.30;89.90;;;;;;2097447;28;20029;-73
2021/06/28 01:12:29;;;;;;;10.75;9.70;;;18.30;89.60;;;;;;2097521;28;20458;-72
2021/06/28 01:13:31;;;;;;;10.82;9.73;;;18.30;90.00;;;;;;2106551;28;20020;-71
2021/06/28 01:14:32;;;;;;;10.23;8.90;;;18.30;90.00;;;;;;2106477;28;20023;-71
2021/06/28 01:15:33;;;;;;;10.15;9.15;;;18.30;90.10;;;;;;2106224;28;20482;-71
2021/06/28 01:16:33;;;;;;;10.38;9.30;;;18.40;90.10;;;;;;2106258;28;20040;-72
2021/06/28 01:17:36;;;;;;;10.30;9.30;;;18.40;90.10;;;;;;2106145;28;20016;-71
2021/06/28 01:18:38;;;;;;;10.32;9.23;;;18.40;89.90;;;;;;2105829;28;20494;-72
2021/06/28 01:19:49;;;;;;;9.75;8.75;;;18.40;89.90;;;;;;2103100;28;20123;-71
2021/06/28 01:20:50;;;;;;;9.98;9.05;;;18.40;89.40;;;;;;2106242;28;20073;-72
2021/06/28 01:21:52;;;;;;;10.00;9.10;;;18.40;89.60;;;;;;2097072;28;20698;-72
2021/06/28 01:22:55;;;;;;;10.52;9.38;;;18.40;90.00;;;;;;2089075;28;20119;-72
2021/06/28 01:23:56;;;;;;;11.07;9.63;;;18.30;89.50;;;;;;2080957;28;20033;-72
2021/06/28 01:24:58;;;;;;;9.73;8.93;;;18.30;89.80;;;;;;2080899;28;20583;-72
2021/06/28 01:26:10;;;;;;;10.13;9.23;;;18.30;90.00;;;;;;2097356;28;20035;-72
2021/06/28 01:27:11;;;;;;;10.52;9.43;;;18.30;90.10;;;;;;2106350;28;20421;-72
2021/06/28 01:28:13;;;;;;;10.45;9.45;;;18.30;90.00;;;;;;2106006;28;20441;-73
2021/06/28 01:29:14;;;;;;;11.63;9.80;;;18.30;89.80;;;;;;2105310;28;20123;-72
2021/06/28 01:30:21;;;;;;;10.25;9.30;;;18.30;89.00;;;;;;2106075;28;20028;-72
2021/06/28 01:31:21;;;;;;;11.50;9.52;;;18.30;89.10;;;;;;2097231;28;20028;-72
2021/06/28 01:32:24;;;;;;;10.80;9.45;;;18.30;89.30;;;;;;2096239;28;20110;-72
2021/06/28 01:33:25;;;;;;;10.20;9.20;;;18.30;89.20;;;;;;2105903;28;20032;-72
2021/06/28 01:34:25;;;;;;;10.40;9.30;;;18.30;89.10;;;;;;2097074;28;20123;-72
2021/06/28 01:35:26;;;;;;;11.10;9.00;;;18.30;89.10;;;;;;2097206;28;20066;-72
2021/06/28 01:36:26;;;;;;;10.20;9.05;;;18.30;88.90;;;;;;2097215;28;20071;-72
2021/06/28 01:37:29;;;;;;;10.40;9.30;;;18.30;88.50;;;;;;2097225;28;20037;-72
2021/06/28 01:38:31;;;;;;;10.85;9.75;;;18.30;88.50;;;;;;2105810;28;20020;-72
2021/06/28 01:39:32;;;;;;;10.35;9.32;;;18.30;88.40;;;;;;2105537;28;20046;-73
2021/06/28 01:40:32;;;;;;;10.45;9.45;;;18.30;88.60;;;;;;2106185;28;20074;-71
2021/06/28 01:41:33;;;;;;;10.50;9.48;;;18.20;88.60;;;;;;2106191;28;20016;-71
2021/06/28 01:42:35;;;;;;;11.25;9.25;;;18.30;88.70;;;;;;2097179;28;20576;-71
2021/06/28 01:43:36;;;;;;;10.68;9.68;;;18.30;88.70;;;;;;2097007;28;20365;-71
2021/06/28 01:44:37;;;;;;;10.32;9.30;;;18.30;88.50;;;;;;2097272;28;20103;-70
2021/06/28 01:45:39;;;;;;;10.50;9.50;;;18.20;88.60;;;;;;2097156;28;20115;-72
2021/06/28 01:46:39;;;;;;;10.77;9.23;;;18.20;88.80;;;;;;2097224;28;20475;-70
2021/06/28 01:47:41;;;;;;;10.98;9.88;;;18.20;88.80;;;;;;2106049;28;20024;-71
2021/06/28 01:48:43;;;;;;;10.98;9.63;;;18.20;88.90;;;;;;2105075;28;20106;-71
2021/06/28 01:49:44;;;;;;;10.35;9.32;;;18.20;88.60;;;;;;2105967;28;20103;-71
2021/06/28 01:50:46;;;;;;;10.68;9.68;;;18.20;88.60;;;;;;2097009;28;20455;-71
2021/06/28 01:51:47;;;;;;;10.15;9.23;;;18.20;88.60;;;;;;2088442;28;20081;-72
2021/06/28 01:52:48;;;;;;;10.52;9.52;;;18.10;88.60;;;;;;2097065;28;20174;-71
2021/06/28 01:53:48;;;;;;;11.70;9.43;;;18.10;88.70;;;;;;2105935;28;20048;-73
2021/06/28 01:54:49;;;;;;;10.63;9.52;;;18.10;88.60;;;;;;2105987;28;20028;-73
2021/06/28 01:55:50;;;;;;;11.38;9.90;;;18.10;89.00;;;;;;2096997;28;20021;-70
2021/06/28 01:56:50;;;;;;;10.85;9.85;;;18.10;89.10;;;;;;2097068;28;20052;-70
2021/06/28 01:57:57;;;;;;;10.50;9.50;;;18.10;89.30;;;;;;2105835;28;20032;-74
2021/06/28 01:58:57;;;;;;;11.13;10.02;;;18.10;89.10;;;;;;2104992;28;20016;-71
2021/06/28 01:59:59;;;;;;;11.23;10.10;;;18.10;88.80;;;;;;2105948;28;20061;-70
2021/06/28 02:01:00;;;;;;;10.90;9.82;;;18.10;88.60;;;;;;2106011;28;20035;-72
2021/06/28 02:02:03;;;;;;;10.68;9.65;;;18.10;88.50;;;;;;2105983;28;20428;-71
2021/06/28 02:03:06;;;;;;;10.65;9.50;;;18.10;88.30;;;;;;2105987;28;20455;-72
2021/06/28 02:04:07;;;;;;;10.35;9.27;;;18.10;88.40;;;;;;2105937;28;20427;-73
2021/06/28 02:05:08;;;;;;;10.45;9.45;;;18.10;88.40;;;;;;2105965;28;20162;-73
2021/06/28 02:06:09;;;;;;;10.90;9.80;;;18.10;88.50;;;;;;2088608;28;20033;-73
2021/06/28 02:07:09;;;;;;;11.13;9.68;;;18.10;88.40;;;;;;2088675;28;20064;-73
2021/06/28 02:08:12;;;;;;;11.43;10.25;;;18.10;88.80;;;;;;2097000;28;20029;-72
2021/06/28 02:09:13;;;;;;;11.25;10.05;;;18.10;88.80;;;;;;2104754;28;20039;-72
2021/06/28 02:10:13;;;;;;;10.18;9.18;;;18.10;88.60;;;;;;2105742;28;20044;-73
2021/06/28 02:11:14;;;;;;;10.68;9.68;;;18.10;88.50;;;;;;2105806;28;20028;-72
2021/06/28 02:12:15;;;;;;;10.98;9.88;;;18.10;88.40;;;;;;2105880;28;20085;-73
2021/06/28 02:13:21;;;;;;;10.20;9.20;;;18.10;88.10;;;;;;2105842;28;20036;-73
2021/06/28 02:14:22;;;;;;;11.23;9.90;;;18.10;88.10;;;;;;2096833;28;20029;-73
2021/06/28 02:15:26;;;;;;;10.80;9.75;;;18.10;87.90;;;;;;2096996;28;20373;-71
2021/06/28 02:16:27;;;;;;;11.07;9.95;;;18.10;87.70;;;;;;2096844;28;20491;-73
2021/06/28 02:17:27;;;;;;;11.70;9.70;;;18.10;87.60;;;;;;2088619;28;20051;-73
2021/06/28 02:18:28;;;;;;;11.10;9.55;;;18.10;87.60;;;;;;2096516;28;20586;-73
2021/06/28 02:19:29;;;;;;;10.68;9.68;;;18.10;87.60;;;;;;2105009;28;20104;-73
2021/06/28 02:20:30;;;;;;;11.13;10.02;;;18.10;87.50;;;;;;2105652;28;20150;-73
2021/06/28 02:21:31;;;;;;;11.38;9.85;;;18.10;87.50;;;;;;2096855;28;20120;-72
2021/06/28 02:22:31;;;;;;;10.85;9.77;;;18.10;87.40;;;;;;2096660;28;20036;-73
2021/06/28 02:23:34;;;;;;;10.73;9.65;;;18.10;87.30;;;;;;2105832;28;20046;-73
2021/06/28 02:24:35;;;;;;;12.77;9.63;;;18.10;87.30;;;;;;2105731;28;20759;-73
2021/06/28 02:25:35;;;;;;;11.40;10.20;;;18.10;87.40;;;;;;2105652;28;20028;-73
2021/06/28 02:26:37;;;;;;;10.25;9.35;;;18.10;87.30;;;;;;2105696;28;20467;-73
2021/06/28 02:27:38;;;;;;;11.35;9.98;;;18.10;87.50;;;;;;2096718;28;20111;-72
2021/06/28 02:28:42;;;;;;;13.48;9.57;;;18.10;88.00;;;;;;2096256;28;20530;-73
2021/06/28 02:29:43;;;;;;;13.27;10.02;;;18.10;88.30;;;;;;2097080;28;20491;-72
2021/06/28 02:30:44;;;;;;;10.20;9.20;;;18.10;88.60;;;;;;2105691;28;20095;-73
2021/06/28 02:31:45;;;;;;;10.65;9.55;;;18.10;88.70;;;;;;2105517;28;20043;-73
2021/06/28 02:32:45;;;;;;;10.80;9.68;;;18.10;88.80;;;;;;2105782;28;20020;-73
2021/06/28 02:33:48;;;;;;;11.55;9.70;;;18.10;89.00;;;;;;2096670;28;20390;-72
2021/06/28 02:34:49;;;;;;;10.50;9.50;;;18.10;88.90;;;;;;2096903;28;20438;-73
2021/06/28 02:35:50;;;;;;;10.48;9.48;;;18.10;88.90;;;;;;2105507;28;20028;-73
2021/06/28 02:36:50;;;;;;;10.50;9.40;;;18.10;88.90;;;;;;2105684;28;20390;-73
2021/06/28 02:37:51;;;;;;;10.98;9.98;;;18.00;89.30;;;;;;2105639;28;20032;-73
2021/06/28 02:38:53;;;;;;;10.68;9.57;;;18.10;89.50;;;;;;2095822;28;20040;-73
2021/06/28 02:39:54;;;;;;;10.70;9.70;;;18.10;89.60;;;;;;2096787;28;20043;-73
2021/06/28 02:40:55;;;;;;;10.40;9.40;;;18.10;89.60;;;;;;2105626;28;20028;-74
2021/06/28 02:41:56;;;;;;;11.02;9.95;;;18.10;89.40;;;;;;2096509;28;20103;-73
2021/06/28 02:42:56;;;;;;;10.63;9.57;;;18.10;88.80;;;;;;2096584;28;20555;-74
2021/06/28 02:43:57;;;;;;;10.98;9.88;;;18.10;88.70;;;;;;2105042;28;20110;-71
2021/06/28 02:44:58;;;;;;;11.13;10.02;;;18.10;88.70;;;;;;2105529;28;20494;-71
2021/06/28 02:45:58;;;;;;;10.63;9.63;;;18.00;88.70;;;;;;2105547;28;20024;-74
2021/06/28 02:46:59;;;;;;;11.68;9.75;;;18.10;88.80;;;;;;2105571;28;20032;-72
2021/06/28 02:48:00;;;;;;;11.32;10.25;;;18.10;88.70;;;;;;2105692;28;20054;-71
2021/06/28 02:49:00;;;;;;;11.18;10.07;;;18.10;88.60;;;;;;2104759;28;20474;-72
2021/06/28 02:50:06;;;;;;;12.15;10.15;;;18.10;88.50;;;;;;2105501;28;20110;-72
2021/06/28 02:51:09;;;;;;;11.80;10.50;;;18.10;88.50;;;;;;2105344;28;20034;-74
2021/06/28 02:52:09;;;;;;;10.70;9.70;;;18.10;88.50;;;;;;2105593;28;20030;-74
2021/06/28 02:53:10;;;;;;;11.27;10.07;;;18.10;88.60;;;;;;2105420;28;20809;-74
2021/06/28 02:54:11;;;;;;;10.80;9.70;;;18.10;88.20;;;;;;2105334;28;20059;-71
2021/06/28 02:55:12;;;;;;;10.90;9.77;;;18.10;88.30;;;;;;2105513;28;20020;-72
2021/06/28 02:56:13;;;;;;;10.80;9.73;;;18.20;88.90;;;;;;2096162;28;20044;-72
2021/06/28 02:57:13;;;;;;;10.57;9.57;;;18.20;88.80;;;;;;2096636;28;20043;-72
2021/06/28 02:58:18;;;;;;;11.05;10.00;;;18.20;89.00;;;;;;2096263;28;20050;-72
2021/06/28 02:59:19;;;;;;;10.80;9.80;;;18.20;88.90;;;;;;2096206;28;20037;-72
2021/06/28 03:00:19;;;;;;;12.32;10.27;;;18.20;88.50;;;;;;2105472;28;20459;-73
2021/06/28 03:01:22;;;;;;;11.43;10.27;;;18.20;87.90;;;;;;2105384;28;20386;-71
2021/06/28 03:02:23;;;;;;;11.70;10.50;;;18.20;87.60;;;;;;2105441;28;20024;-72
2021/06/28 03:03:24;;;;;;;11.10;10.10;;;18.20;87.50;;;;;;2105595;28;20047;-72
2021/06/28 03:04:24;;;;;;;11.68;10.02;;;18.10;87.40;;;;;;2105405;28;20035;-71
2021/06/28 03:05:26;;;;;;;11.30;10.20;;;18.20;87.70;;;;;;2105310;28;20039;-72
2021/06/28 03:06:26;;;;;;;11.15;10.05;;;18.20;87.90;;;;;;2105301;28;20031;-73
2021/06/28 03:07:27;;;;;;;10.68;9.57;;;18.20;87.90;;;;;;2096341;28;20136;-72
2021/06/28 03:08:27;;;;;;;11.10;9.93;;;18.20;88.00;;;;;;2096200;28;20090;-72
2021/06/28 03:09:28;;;;;;;11.43;10.32;;;18.20;88.10;;;;;;2104828;28;20035;-72
2021/06/28 03:10:28;;;;;;;10.95;9.95;;;18.20;87.90;;;;;;2105297;28;20020;-71
2021/06/28 03:11:29;;;;;;;10.95;9.93;;;18.20;87.90;;;;;;2105341;28;20031;-72
2021/06/28 03:12:29;;;;;;;11.38;10.18;;;18.10;87.50;;;;;;2105257;28;20114;-72
2021/06/28 03:13:36;;;;;;;11.70;10.50;;;18.20;87.90;;;;;;2105310;28;20077;-71
2021/06/28 03:14:36;;;;;;;11.70;10.50;;;18.10;87.30;;;;;;2105246;28;20032;-71
2021/06/28 03:15:37;;;;;;;11.50;10.40;;;18.10;87.30;;;;;;2105284;28;20386;-74
2021/06/28 03:16:38;;;;;;;10.98;9.98;;;18.10;87.10;;;;;;2096476;28;20090;-72
2021/06/28 03:17:39;;;;;;;11.75;10.55;;;18.10;87.50;;;;;;2098335;28;20024;-73
2021/06/28 03:18:40;;;;;;;11.38;10.27;;;18.10;87.00;;;;;;2097037;28;20021;-72
2021/06/28 03:19:41;;;;;;;11.10;10.10;;;18.10;86.90;;;;;;2089155;28;20078;-72
2021/06/28 03:20:42;;;;;;;11.25;10.15;;;18.10;86.70;;;;;;2095261;28;20039;-73
2021/06/28 03:21:42;;;;;;;11.93;10.73;;;18.10;86.80;;;;;;2097765;28;20016;-72
2021/06/28 03:22:45;;;;;;;11.75;10.55;;;18.10;86.50;;;;;;2096880;28;20123;-71
2021/06/28 03:23:46;;;;;;;11.13;10.10;;;18.10;86.90;;;;;;2097350;28;20036;-73
2021/06/28 03:24:46;;;;;;;15.80;11.05;;;18.10;87.00;;;;;;2106153;28;20051;-73
2021/06/28 03:25:48;;;;;;;11.70;10.55;;;18.10;86.90;;;;;;2096647;28;20464;-72
2021/06/28 03:26:49;;;;;;;11.02;10.00;;;18.10;86.90;;;;;;2097012;28;20063;-72
2021/06/28 03:27:50;;;;;;;11.45;9.95;;;18.10;86.80;;;;;;2105478;28;20024;-72
2021/06/28 03:28:50;;;;;;;11.68;10.57;;;18.10;86.70;;;;;;2104667;28;20550;-73
2021/06/28 03:29:51;;;;;;;11.32;10.27;;;18.20;86.70;;;;;;2105381;28;20077;-72
2021/06/28 03:30:52;;;;;;;12.82;10.43;;;18.20;86.60;;;;;;2105221;28;20162;-72
2021/06/28 03:31:52;;;;;;;11.43;10.23;;;18.20;86.30;;;;;;2096346;28;20036;-72
2021/06/28 03:32:53;;;;;;;11.32;10.18;;;18.20;86.20;;;;;;2096321;28;20030;-72
2021/06/28 03:33:55;;;;;;;11.70;10.60;;;18.20;86.40;;;;;;2105089;28;20024;-71
2021/06/28 03:34:56;;;;;;;11.18;10.13;;;18.20;86.30;;;;;;2105202;28;20036;-72
2021/06/28 03:35:56;;;;;;;11.70;10.57;;;18.20;86.20;;;;;;2105171;28;20052;-72
2021/06/28 03:36:57;;;;;;;11.63;10.43;;;18.20;86.20;;;;;;2105298;28;20036;-71
2021/06/28 03:37:58;;;;;;;11.98;10.63;;;18.20;86.40;;;;;;2096126;28;20036;-71
2021/06/28 03:38:59;;;;;;;11.20;9.90;;;18.20;86.30;;;;;;2095529;28;20078;-72
2021/06/28 03:39:59;;;;;;;11.38;10.15;;;18.20;86.00;;;;;;2096195;28;20507;-72
2021/06/28 03:41:00;;;;;;;11.30;10.20;;;18.20;85.90;;;;;;2096340;28;20013;-73
2021/06/28 03:42:01;;;;;;;11.60;10.50;;;18.30;86.20;;;;;;2105073;28;20070;-72
2021/06/28 03:43:08;;;;;;;11.52;10.43;;;18.30;85.90;;;;;;2105259;28;20504;-72
2021/06/28 03:44:09;;;;;;;12.10;10.80;;;18.30;86.10;;;;;;2105249;28;20144;-72
2021/06/28 03:45:12;;;;;;;12.32;11.05;;;18.30;86.30;;;;;;2096322;28;20102;-72
2021/06/28 03:46:13;;;;;;;11.65;10.45;;;18.30;86.40;;;;;;2088275;28;20029;-72
2021/06/28 03:47:13;;;;;;;12.45;11.15;;;18.30;86.30;;;;;;2096414;28;20035;-72
2021/06/28 03:48:14;;;;;;;11.85;10.65;;;18.30;85.70;;;;;;2105218;28;20044;-72
2021/06/28 03:49:15;;;;;;;11.68;10.48;;;18.30;85.70;;;;;;2104248;28;20039;-72
2021/06/28 03:50:15;;;;;;;11.55;10.45;;;18.40;85.70;;;;;;2105162;28;20058;-73
2021/06/28 03:51:16;;;;;;;12.07;10.75;;;18.40;85.60;;;;;;2105033;28;20039;-71
2021/06/28 03:52:17;;;;;;;11.43;10.30;;;18.40;85.60;;;;;;2105269;28;20390;-73
2021/06/28 03:53:17;;;;;;;12.18;10.75;;;18.40;85.80;;;;;;2105340;28;20016;-74
2021/06/28 03:54:18;;;;;;;11.30;10.10;;;18.40;85.90;;;;;;2096107;28;20495;-70
2021/06/28 03:55:18;;;;;;;11.57;10.48;;;18.40;85.40;;;;;;2096091;28;20063;-71
2021/06/28 03:56:19;;;;;;;12.38;10.55;;;18.50;85.50;;;;;;2097728;28;20028;-71
2021/06/28 03:57:20;;;;;;;11.30;10.30;;;18.50;85.10;;;;;;2097981;28;20166;-72
2021/06/28 03:58:21;;;;;;;11.65;10.55;;;18.50;85.20;;;;;;2106854;28;20024;-71
2021/06/28 03:59:22;;;;;;;12.23;10.68;;;18.50;85.10;;;;;;2097190;28;20472;-72
2021/06/28 04:00:25;;;;;;;11.68;10.57;;;18.50;84.90;;;;;;2097845;28;20029;-71
2021/06/28 04:01:25;;;;;;;11.65;10.55;;;18.50;85.00;;;;;;2106847;28;20016;-72
2021/06/28 04:02:27;;;;;;;11.57;10.50;;;18.60;85.20;;;;;;2106846;28;20036;-72
2021/06/28 04:03:29;;;;;;;11.55;10.35;;;18.60;85.60;;;;;;2106623;28;20032;-72
2021/06/28 04:04:30;;;;;;;12.15;10.50;;;18.60;86.20;;;;;;2106775;28;20036;-72
2021/06/28 04:05:30;;;;;;;12.30;10.90;;;18.60;86.80;;;;;;2106944;28;20055;-72
2021/06/28 04:06:32;;;;;;;11.93;10.75;;;18.60;87.30;;;;;;2106852;28;20030;-72
2021/06/28 04:07:32;;;;;;;11.95;10.70;;;18.60;86.80;;;;;;2097814;28;20028;-72
2021/06/28 04:08:35;;;;;;;12.13;10.93;;;18.60;87.00;;;;;;2089058;28;20024;-71
2021/06/28 04:09:35;;;;;;;11.48;10.38;;;18.60;87.00;;;;;;2097463;28;20556;-71
2021/06/28 04:10:36;;;;;;;12.82;11.20;;;18.70;87.30;;;;;;2106763;28;20028;-72
2021/06/28 04:11:36;;;;;;;12.35;10.90;;;18.80;87.40;;;;;;2089434;28;20017;-72
2021/06/28 04:12:38;;;;;;;11.93;10.82;;;18.90;86.90;;;;;;2089400;28;20029;-71
2021/06/28 04:13:38;;;;;;;12.35;11.05;;;19.10;85.80;;;;;;2106737;28;20035;-72
2021/06/28 04:14:41;;;;;;;12.23;11.02;;;19.20;85.00;;;;;;2106604;28;20039;-72
2021/06/28 04:15:42;;;;;;;12.73;11.35;;;19.20;84.20;;;;;;2106769;28;20032;-72
2021/06/28 04:16:43;;;;;;;12.23;11.00;;;19.30;83.50;;;;;;2106749;28;20028;-72
2021/06/28 04:17:47;;;;;;;12.55;11.25;;;19.20;82.80;;;;;;2106762;28;20026;-72
2021/06/28 04:18:47;;;;;;;12.50;11.30;;;19.20;82.60;;;;;;2105804;28;20538;-74
2021/06/28 04:19:48;;;;;;;12.00;10.80;;;19.20;82.90;;;;;;2106698;28;20039;-74
2021/06/28 04:20:49;;;;;;;13.57;11.10;;;19.20;82.50;;;;;;2106583;28;20032;-71
2021/06/28 04:21:49;;;;;;;14.30;11.55;;;19.20;82.10;;;;;;2106877;28;20032;-71
2021/06/28 04:22:51;;;;;;;12.57;11.27;;;19.20;82.10;;;;;;2106793;28;20474;-73
2021/06/28 04:23:51;;;;;;;12.50;11.10;;;19.20;82.40;;;;;;2097692;28;20021;-73
2021/06/28 04:24:52;;;;;;;11.73;10.63;;;19.20;82.10;;;;;;2097764;28;20021;-73
2021/06/28 04:25:52;;;;;;;12.30;11.07;;;19.30;81.50;;;;;;2106704;28;20697;-73
2021/06/28 04:26:56;;;;;;;16.55;11.02;;;19.50;80.90;;;;;;2106843;28;20390;-74
2021/06/28 04:27:57;;;;;;;12.52;11.10;;;19.70;80.40;;;;;;2097445;28;20029;-73
2021/06/28 04:28:58;;;;;;;11.75;10.55;;;20.00;79.50;;;;;;2097028;28;20052;-72
2021/06/28 04:29:59;;;;;;;14.93;11.57;;;20.30;78.40;;;;;;2106781;28;20111;-74
2021/06/28 04:31:00;;;;;;;15.57;11.20;;;20.30;77.60;;;;;;2106838;28;20444;-72
2021/06/28 04:32:01;;;;;;;13.05;11.27;;;20.20;76.80;;;;;;2106565;28;20645;-72
2021/06/28 04:33:02;;;;;;;14.35;10.70;;;20.10;77.20;;;;;;2106781;28;20028;-73
2021/06/28 04:34:03;;;;;;;12.13;10.88;;;20.00;77.40;;;;;;2106406;28;20024;-72
2021/06/28 04:35:12;;;;;;;12.35;11.15;;;20.00;77.40;;;;;;2106603;28;20048;-72
2021/06/28 04:36:13;;;;;;;12.23;11.10;;;20.00;77.40;;;;;;2106551;28;20028;-72
2021/06/28 04:37:13;;;;;;;12.20;10.40;;;19.90;77.70;;;;;;2106551;28;20024;-72
2021/06/28 04:38:14;;;;;;;12.00;10.90;;;19.90;77.80;;;;;;2106506;28;20036;-71
2021/06/28 04:39:14;;;;;;;11.68;10.50;;;19.90;78.40;;;;;;2105740;28;20024;-71
2021/06/28 04:40:18;;;;;;;11.75;10.63;;;19.80;78.20;;;;;;2106394;28;20043;-71
2021/06/28 04:41:21;;;;;;;11.40;10.18;;;19.80;78.20;;;;;;2089110;28;20056;-70
2021/06/28 04:42:21;;;;;;;12.23;10.50;;;19.70;78.00;;;;;;2089436;28;20086;-70
2021/06/28 04:43:22;;;;;;;10.98;9.88;;;19.70;78.50;;;;;;2097318;28;20082;-70
2021/06/28 04:44:22;;;;;;;11.57;9.85;;;19.70;78.70;;;;;;2089301;28;20040;-73
2021/06/28 04:45:25;;;;;;;11.93;10.73;;;19.70;79.00;;;;;;2089153;28;20404;-71
2021/06/28 04:46:26;;;;;;;11.50;10.30;;;19.60;79.20;;;;;;2106372;28;20040;-72
2021/06/28 04:47:27;;;;;;;13.35;10.93;;;19.60;78.50;;;;;;2106477;28;20062;-71
2021/06/28 04:48:27;;;;;;;11.35;10.07;;;19.50;77.90;;;;;;2096912;28;20123;-70
2021/06/28 04:49:28;;;;;;;11.15;9.98;;;19.50;77.80;;;;;;2096779;28;20078;-70
2021/06/28 04:50:28;;;;;;;11.18;10.07;;;19.40;78.10;;;;;;2106295;28;20050;-70
2021/06/28 04:51:31;;;;;;;10.75;9.73;;;19.40;78.50;;;;;;2106243;28;20034;-70
2021/06/28 04:52:33;;;;;;;10.77;9.75;;;19.40;78.60;;;;;;2097478;28;20019;-71
2021/06/28 04:53:33;;;;;;;11.07;9.95;;;19.40;78.60;;;;;;2089378;28;20108;-70
2021/06/28 04:54:34;;;;;;;11.27;10.18;;;19.30;78.30;;;;;;2088951;28;20478;-70
2021/06/28 04:55:34;;;;;;;11.00;10.00;;;19.30;78.60;;;;;;2097368;28;20017;-71
2021/06/28 04:56:35;;;;;;;11.07;10.00;;;19.30;79.10;;;;;;2106301;28;20081;-71
2021/06/28 04:57:36;;;;;;;11.02;10.00;;;19.30;79.20;;;;;;2106383;28;20016;-70
2021/06/28 04:58:36;;;;;;;10.48;9.52;;;19.30;79.30;;;;;;2105794;28;20024;-71
2021/06/28 04:59:37;;;;;;;11.70;10.50;;;19.40;79.50;;;;;;2105840;28;20386;-70
2021/06/28 05:00:38;;;;;;;11.23;10.07;;;19.40;79.70;;;;;;2106345;28;20027;-71
2021/06/28 05:01:38;;;;;;;10.80;9.70;;;19.40;79.70;;;;;;2106579;28;20016;-72
2021/06/28 05:02:39;;;;;;;11.02;10.00;;;19.40;79.70;;;;;;2097295;28;20016;-73
2021/06/28 05:03:39;;;;;;;10.73;9.73;;;19.50;79.60;;;;;;2097776;28;20052;-71
2021/06/28 05:04:40;;;;;;;11.25;10.07;;;19.50;79.80;;;;;;2106585;28;20051;-71
2021/06/28 05:05:44;;;;;;;11.07;10.07;;;19.60;79.50;;;;;;2106521;28;20629;-70
2021/06/28 05:06:47;;;;;;;10.90;9.80;;;19.60;79.20;;;;;;2097430;28;20119;-70
2021/06/28 05:07:48;;;;;;;11.27;9.88;;;19.60;78.80;;;;;;2081813;28;20026;-73
2021/06/28 05:08:49;;;;;;;10.25;9.27;;;19.60;78.40;;;;;;2089020;28;20071;-71
2021/06/28 05:09:49;;;;;;;10.82;9.73;;;19.70;78.40;;;;;;2106696;28;20161;-72
2021/06/28 05:10:50;;;;;;;11.30;10.20;;;19.70;78.30;;;;;;2106691;28;20028;-72
2021/06/28 05:11:50;;;;;;;11.20;9.95;;;19.70;77.90;;;;;;2106501;28;20032;-71
2021/06/28 05:12:51;;;;;;;11.02;9.90;;;19.70;77.90;;;;;;2098196;28;20067;-73
2021/06/28 05:13:52;;;;;;;10.98;9.98;;;19.70;77.90;;;;;;2097667;28;20452;-72
2021/06/28 05:14:53;;;;;;;11.13;9.52;;;19.80;78.00;;;;;;2106481;28;20027;-71
2021/06/28 05:15:53;;;;;;;12.65;10.10;;;19.80;77.70;;;;;;2090280;28;20503;-72
2021/06/28 05:16:54;;;;;;;10.70;9.60;;;19.80;77.50;;;;;;2091759;28;20041;-71
2021/06/28 05:17:54;;;;;;;10.80;9.70;;;19.90;77.40;;;;;;2097383;28;20054;-71
2021/06/28 05:18:58;;;;;;;10.73;9.70;;;19.90;77.60;;;;;;2096678;28;20117;-70
2021/06/28 05:19:59;;;;;;;10.63;9.63;;;19.90;77.10;;;;;;2098531;28;20028;-72
2021/06/28 05:20:59;;;;;;;11.10;10.00;;;19.90;76.80;;;;;;2106577;28;20059;-71
2021/06/28 05:22:00;;;;;;;10.57;9.48;;;20.00;77.20;;;;;;2106604;28;20083;-71
2021/06/28 05:23:01;;;;;;;10.75;9.50;;;20.00;76.10;;;;;;2106589;28;20064;-70
2021/06/28 05:24:01;;;;;;;12.43;9.85;;;20.10;76.10;;;;;;2106160;28;20054;-70
2021/06/28 05:25:04;;;;;;;10.73;9.73;;;20.10;75.80;;;;;;2106314;28;20548;-70
2021/06/28 05:26:05;;;;;;;10.43;9.43;;;20.20;75.50;;;;;;2106033;28;20066;-69
2021/06/28 05:27:06;;;;;;;12.05;10.07;;;20.20;75.60;;;;;;2106039;28;20433;-70
2021/06/28 05:28:06;;;;;;;11.80;10.30;;;20.20;75.20;;;;;;2106036;28;20024;-70
2021/06/28 05:29:07;;;;;;;10.98;9.98;;;20.30;75.10;;;;;;2096363;28;20033;-70
2021/06/28 05:30:11;;;;;;;11.13;9.90;;;20.40;75.80;;;;;;2097065;28;20499;-69